Time;durP1;ratioP1;P1;durP2;ratioP2;P2;SDS_P1;SDS_P2;PMS_P1;PMS_P2;Temp;Humidity;BMP_temperature;BMP_pressure;BME280_temperature;BME280_humidity;BME280_pressure;Samples;Min_cycle;Max_cycle;Signal;HPM_P1;HPM_P2
2021/07/27 00:00:23;;;;;;;14.50;6.75;;;;;;;29.80;57.15;100632.56;5051776;28;70326;-32
2021/07/27 00:03:02;;;;;;;6.90;6.15;;;;;;;29.92;57.67;100640.81;5052288;28;64622;-35
2021/07/27 00:05:35;;;;;;;10.68;5.68;;;;;;;29.72;57.94;100596.88;5054817;28;69152;-33
2021/07/27 00:08:25;;;;;;;9.40;5.80;;;;;;;29.87;57.51;100610.91;5035633;28;66238;-32
2021/07/27 00:10:56;;;;;;;9.57;5.10;;;;;;;30.08;58.69;100633.19;5052286;28;70372;-34
2021/07/27 00:13:27;;;;;;;7.22;4.90;;;;;;;30.16;59.02;100635.63;5049425;28;67089;-40
2021/07/27 00:15:59;;;;;;;8.75;5.10;;;;;;;30.15;59.61;100634.81;5044686;28;68377;-34
2021/07/27 00:18:30;;;;;;;11.60;5.22;;;;;;;30.23;60.29;100639.16;5048315;28;65235;-37
2021/07/27 00:21:03;;;;;;;8.50;4.43;;;;;;;30.27;59.71;100638.47;5052454;28;69961;-37
2021/07/27 00:23:38;;;;;;;8.43;5.22;;;;;;;30.31;60.38;100641.53;5052862;28;66105;-35
2021/07/27 00:26:15;;;;;;;6.05;5.05;;;;;;;30.30;61.26;100630.97;5051864;28;70015;-37
2021/07/27 00:28:46;;;;;;;6.45;4.72;;;;;;;30.36;61.79;100643.59;5046806;28;65840;-37
2021/07/27 00:31:18;;;;;;;8.30;5.13;;;;;;;30.38;60.76;100645.03;5052444;28;70298;-39
2021/07/27 00:33:49;;;;;;;5.72;4.70;;;;;;;30.44;62.12;100670.38;5037805;28;65556;-34
2021/07/27 00:36:19;;;;;;;6.72;4.43;;;;;;;30.40;61.63;100652.94;5047863;28;70116;-33
2021/07/27 00:38:49;;;;;;;16.10;4.78;;;;;;;30.50;62.83;100664.88;5049904;28;65843;-33
2021/07/27 00:41:19;;;;;;;11.18;5.22;;;;;;;30.51;62.91;100665.75;5052705;28;69798;-33
2021/07/27 00:43:49;;;;;;;16.13;4.65;;;;;;;30.53;64.01;100666.31;5053991;28;67186;-34
2021/07/27 00:46:20;;;;;;;11.35;4.68;;;;;;;30.56;63.32;100674.00;5053279;28;69725;-34
2021/07/27 00:48:50;;;;;;;12.75;4.97;;;;;;;30.46;63.97;100652.03;5052691;28;66769;-33
2021/07/27 00:51:20;;;;;;;13.32;5.60;;;;;;;30.59;63.69;100656.47;5053117;28;70290;-32
2021/07/27 00:53:50;;;;;;;10.60;5.45;;;;;;;30.57;62.54;100659.44;5052464;28;65328;-33
2021/07/27 00:56:21;;;;;;;7.63;4.70;;;;;;;30.66;63.21;100666.19;5050150;28;71133;-34
2021/07/27 00:58:52;;;;;;;9.43;4.95;;;;;;;30.69;64.22;100660.31;5052140;28;65278;-33
2021/07/27 01:01:25;;;;;;;16.58;5.05;;;;;;;30.71;63.82;100658.22;5049648;28;70042;-34
2021/07/27 01:03:56;;;;;;;8.10;5.10;;;;;;;30.75;64.12;100661.31;5054176;28;66505;-34
2021/07/27 01:06:26;;;;;;;6.90;4.57;;;;;;;30.79;63.80;100650.88;5054190;28;70625;-33
2021/07/27 01:08:57;;;;;;;8.57;4.75;;;;;;;30.81;63.87;100644.19;5049451;27;65824;-34
2021/07/27 01:11:28;;;;;;;7.20;4.45;;;;;;;30.81;63.26;100648.78;5036962;28;68968;-34
2021/07/27 01:13:58;;;;;;;6.13;4.50;;;;;;;30.84;63.35;100637.50;5053638;28;65144;-34
2021/07/27 01:16:34;;;;;;;7.78;4.30;;;;;;;30.85;64.61;100640.00;5039497;28;69672;-33
2021/07/27 01:44:45;;;;;;;6.85;3.85;;;;;;;30.71;64.69;100563.47;5054293;28;69648;-34
2021/07/27 01:47:19;;;;;;;6.45;3.67;;;;;;;31.04;65.06;100604.78;5051798;28;65157;-34
2021/07/27 01:49:52;;;;;;;6.10;3.75;;;;;;;31.10;65.14;100620.94;5053348;28;70041;-34
2021/07/27 01:52:24;;;;;;;8.13;3.80;;;;;;;31.15;65.21;100631.91;5050764;28;65400;-35
2021/07/27 01:55:07;;;;;;;13.10;4.13;;;;;;;31.17;65.51;100626.25;5054927;28;71088;-35
2021/07/27 01:57:42;;;;;;;7.18;3.83;;;;;;;31.16;64.78;100614.59;5038793;28;66231;-37
2021/07/27 02:00:21;;;;;;;5.22;3.55;;;;;;;31.19;64.96;100612.50;5054067;28;69988;-35
2021/07/27 02:02:56;;;;;;;8.38;3.97;;;;;;;31.26;65.01;100624.91;5035683;28;66318;-35
2021/07/27 02:05:28;;;;;;;5.03;3.97;;;;;;;31.31;65.01;100632.31;5047050;28;69439;-34
2021/07/27 02:08:04;;;;;;;6.82;3.95;;;;;;;31.36;64.71;100624.38;5049695;28;65609;-34
2021/07/27 02:10:44;;;;;;;8.68;3.83;;;;;;;31.38;64.28;100631.22;5037218;28;69490;-36
2021/07/27 02:13:33;;;;;;;4.78;3.20;;;;;;;31.45;64.55;100622.16;5050518;28;66132;-34
2021/07/27 02:16:06;;;;;;;5.22;2.95;;;;;;;31.47;64.38;100631.72;5016899;28;70197;-35
2021/07/27 02:18:39;;;;;;;3.63;2.53;;;;;;;31.45;64.65;100628.41;5021711;28;66053;-35
2021/07/27 02:21:17;;;;;;;4.30;2.30;;;;;;;31.53;64.42;100622.66;5036660;28;69274;-34
2021/07/27 02:23:58;;;;;;;5.85;2.38;;;;;;;31.57;65.06;100632.00;5050400;28;66794;-32
2021/07/27 02:26:41;;;;;;;7.95;2.63;;;;;;;31.60;64.57;100642.38;5028121;28;70081;-36
2021/07/27 02:29:29;;;;;;;3.88;2.38;;;;;;;31.60;64.71;100636.13;5038494;28;66274;-35
2021/07/27 02:32:04;;;;;;;4.97;1.83;;;;;;;31.67;64.65;100639.56;5017312;28;69124;-34
2021/07/27 02:34:42;;;;;;;4.15;2.10;;;;;;;31.72;64.29;100638.88;5025853;28;64942;-35
2021/07/27 02:37:15;;;;;;;7.10;1.80;;;;;;;31.76;64.32;100645.47;5017222;28;69028;-34
2021/07/27 02:39:53;;;;;;;4.80;1.80;;;;;;;31.75;64.51;100644.66;5053273;28;66046;-36
2021/07/27 02:42:32;;;;;;;4.80;2.00;;;;;;;31.85;64.38;100652.25;5053032;28;69834;-35
2021/07/27 02:45:12;;;;;;;5.93;2.05;;;;;;;31.88;64.04;100656.38;5050193;28;65355;-35
2021/07/27 02:47:47;;;;;;;3.03;1.90;;;;;;;31.86;64.28;100637.59;5037022;28;70054;-35
2021/07/27 02:50:27;;;;;;;3.20;1.77;;;;;;;31.88;64.20;100632.78;5037119;28;65285;-33
2021/07/27 02:53:25;;;;;;;5.30;2.10;;;;;;;31.95;63.88;100630.81;5035936;28;70395;-37
2021/07/27 02:56:05;;;;;;;4.95;1.90;;;;;;;31.90;64.24;100618.97;5047805;28;67178;-37
2021/07/27 02:58:41;;;;;;;4.60;2.03;;;;;;;31.99;63.76;100634.72;5039570;28;70132;-35
2021/07/27 03:01:27;;;;;;;6.75;1.55;;;;;;;32.07;64.30;100641.69;5047005;28;66805;-36
2021/07/27 03:04:07;;;;;;;5.70;1.70;;;;;;;32.05;63.96;100632.94;5049709;28;69497;-34
2021/07/27 03:06:45;;;;;;;2.30;1.50;;;;;;;32.10;63.19;100648.53;5015562;28;65452;-36
2021/07/27 03:09:45;;;;;;;2.93;1.77;;;;;;;32.09;63.23;100638.72;5048226;28;69657;-37
2021/07/27 03:12:26;;;;;;;7.18;1.73;;;;;;;32.13;63.68;100639.94;5046964;28;65866;-34
2021/07/27 03:15:04;;;;;;;4.30;1.90;;;;;;;32.16;63.29;100650.31;5032862;28;69768;-35
2021/07/27 03:17:40;;;;;;;6.75;1.63;;;;;;;32.18;62.94;100642.75;5040164;28;66247;-35
2021/07/27 03:20:18;;;;;;;2.47;1.10;;;;;;;32.21;63.08;100642.28;5049624;28;70677;-34
2021/07/27 03:22:55;;;;;;;2.40;1.48;;;;;;;32.22;62.46;100635.78;5034103;28;64547;-35
2021/07/27 03:25:40;;;;;;;2.60;1.27;;;;;;;32.23;62.46;100646.44;5019620;28;68688;-35
2021/07/27 03:28:25;;;;;;;2.85;1.60;;;;;;;32.29;62.08;100650.09;5061572;28;65857;-37
2021/07/27 03:31:08;;;;;;;5.15;2.13;;;;;;;32.30;62.48;100649.00;5036367;28;70262;-34
2021/07/27 03:33:46;;;;;;;4.90;2.42;;;;;;;32.28;62.50;100637.56;5013235;28;66825;-33
2021/07/27 03:36:35;;;;;;;4.80;2.30;;;;;;;32.29;62.89;100636.53;5031500;28;70773;-37
2021/07/27 03:39:11;;;;;;;3.03;2.20;;;;;;;32.32;62.75;100632.47;5015509;28;65767;-35
2021/07/27 03:41:50;;;;;;;2.80;2.10;;;;;;;32.35;62.86;100638.28;5017711;28;69501;-36
2021/07/27 03:44:33;;;;;;;4.45;2.20;;;;;;;32.36;63.13;100639.94;5021511;28;65543;-34
2021/07/27 03:47:07;;;;;;;4.30;2.63;;;;;;;32.35;62.93;100622.00;5047547;28;70263;-34
2021/07/27 03:49:38;;;;;;;3.08;2.22;;;;;;;32.40;62.69;100632.97;5047138;28;67000;-35
2021/07/27 03:52:15;;;;;;;2.25;1.70;;;;;;;32.44;62.48;100626.00;5052156;28;69108;-33
2021/07/27 03:54:56;;;;;;;3.08;1.92;;;;;;;32.43;62.64;100618.94;5047498;28;66123;-35
2021/07/27 03:57:29;;;;;;;3.53;1.90;;;;;;;32.51;62.39;100625.06;5044977;28;69916;-34
2021/07/27 04:00:06;;;;;;;3.00;1.55;;;;;;;32.56;62.43;100620.56;5049348;28;66296;-36
2021/07/27 04:02:45;;;;;;;3.83;1.33;;;;;;;32.61;62.37;100611.72;5047363;28;70084;-33
2021/07/27 04:05:28;;;;;;;2.10;1.40;;;;;;;32.70;61.72;100597.53;5044879;28;64723;-34
2021/07/27 04:08:06;;;;;;;2.58;1.23;;;;;;;32.74;61.33;100586.22;5029404;28;70066;-35
2021/07/27 04:10:41;;;;;;;2.03;1.00;;;;;;;32.78;61.09;100584.66;5047182;28;65634;-34
2021/07/27 04:13:14;;;;;;;1.95;1.20;;;;;;;32.81;61.00;100586.88;5050478;28;70048;-35
2021/07/27 04:15:50;;;;;;;5.15;1.15;;;;;;;32.41;60.88;100520.59;5017151;28;66619;-35
2021/07/27 04:18:22;;;;;;;2.65;1.30;;;;;;;32.88;60.28;100582.16;5029801;28;68671;-34
2021/07/27 04:21:00;;;;;;;2.05;1.27;;;;;;;32.88;60.16;100580.25;5036920;28;64395;-33
2021/07/27 04:23:38;;;;;;;3.53;1.20;;;;;;;32.91;60.33;100587.09;5050315;28;69876;-34
2021/07/27 04:26:29;;;;;;;1.83;1.10;;;;;;;32.94;60.05;100582.00;5049013;28;65422;-33
2021/07/27 04:29:00;;;;;;;5.82;1.30;;;;;;;32.97;59.77;100571.72;5038309;28;70127;-37
2021/07/27 04:31:38;;;;;;;1.95;1.02;;;;;;;33.02;59.70;100572.69;5047544;28;66005;-35
2021/07/27 04:34:11;;;;;;;2.70;1.10;;;;;;;33.03;59.35;100568.06;5052412;28;70009;-35
2021/07/27 04:36:44;;;;;;;;;;;;;;;32.68;59.24;100549.94;5047145;28;66386;-33
2021/07/27 04:39:19;;;;;;;13.07;1.45;;;;;;;32.79;57.41;100540.97;5050584;28;70189;-34
2021/07/27 04:41:56;;;;;;;7.90;1.85;;;;;;;32.68;56.19;100549.94;5033050;28;66400;-34
2021/07/27 04:44:31;;;;;;;8.82;2.22;;;;;;;32.54;55.82;100548.56;5049267;28;70280;-35
2021/07/27 04:47:07;;;;;;;11.57;1.80;;;;;;;32.01;54.69;100480.69;5061529;28;66214;-33
2021/07/27 04:49:38;;;;;;;8.07;1.40;;;;;;;32.22;53.96;100535.38;5052408;28;70294;-35
2021/07/27 04:52:12;;;;;;;12.38;1.63;;;;;;;31.77;52.90;100479.00;5058269;28;65938;-33
2021/07/27 04:54:52;;;;;;;5.25;1.60;;;;;;;31.98;52.53;100523.72;5053636;28;70414;-34
2021/07/27 04:57:25;;;;;;;5.43;1.92;;;;;;;31.87;52.19;100517.19;5055362;28;65583;-34
2021/07/27 05:00:00;;;;;;;8.60;1.80;;;;;;;31.78;50.67;100513.19;5052245;28;69378;-35
2021/07/27 05:02:40;;;;;;;4.05;1.55;;;;;;;31.71;50.37;100518.72;5055915;28;65599;-35
2021/07/27 05:05:19;;;;;;;3.58;1.80;;;;;;;31.61;50.74;100497.59;5054640;28;69756;-35
2021/07/27 05:07:58;;;;;;;2.70;1.80;;;;;;;31.43;50.27;100488.78;5053684;28;66081;-34
2021/07/27 05:10:36;;;;;;;4.50;1.73;;;;;;;31.00;48.87;100425.59;5054163;28;69199;-33
2021/07/27 05:13:10;;;;;;;3.67;1.65;;;;;;;31.44;50.37;100491.22;5023036;28;66123;-35
2021/07/27 05:15:43;;;;;;;1.63;1.30;;;;;;;31.38;49.16;100481.31;5052396;28;70161;-40
2021/07/27 05:18:16;;;;;;;2.53;1.80;;;;;;;31.38;49.83;100482.16;5036540;28;66228;-33
2021/07/27 05:20:47;;;;;;;2.13;1.35;;;;;;;31.21;48.59;100456.75;5049291;28;69000;-35
2021/07/27 05:23:18;;;;;;;1.90;1.10;;;;;;;31.27;47.67;100471.25;5057422;28;65345;-34
2021/07/27 05:25:50;;;;;;;2.45;1.42;;;;;;;31.24;47.83;100461.72;5051334;28;69264;-35
2021/07/27 05:28:29;;;;;;;1.88;1.25;;;;;;;31.23;46.62;100461.94;5049820;28;65534;-33
2021/07/27 05:31:00;;;;;;;5.82;1.60;;;;;;;31.17;47.45;100459.13;5029552;28;69915;-34
2021/07/27 05:33:33;;;;;;;;;;;;;;;30.87;48.04;100452.88;5043824;28;66267;-40
2021/07/27 05:36:08;;;;;;;3.35;1.52;;;;;;;31.10;47.64;100449.44;5053904;28;70705;-36
2021/07/27 05:38:39;;;;;;;3.40;1.35;;;;;;;31.10;46.71;100436.72;5055363;28;65838;-37
2021/07/27 05:41:09;;;;;;;6.97;1.92;;;;;;;31.10;47.74;100447.53;5043347;28;70290;-34
2021/07/27 05:43:44;;;;;;;2.97;1.33;;;;;;;31.08;46.31;100427.97;5057901;28;65322;-34
2021/07/27 05:46:14;;;;;;;2.78;1.35;;;;;;;31.03;47.31;100446.00;5058086;28;70418;-39
2021/07/27 05:48:46;;;;;;;3.88;1.52;;;;;;;31.00;47.11;100447.28;5050962;28;67088;-35
2021/07/27 05:51:22;;;;;;;3.53;1.30;;;;;;;31.02;47.86;100434.34;5048725;28;70471;-35
2021/07/27 05:53:53;;;;;;;5.95;1.90;;;;;;;31.01;48.10;100419.16;5054375;28;66151;-34
2021/07/27 05:56:34;;;;;;;2.28;1.83;;;;;;;31.01;47.55;100415.59;5034796;28;69241;-41
2021/07/27 05:59:06;;;;;;;3.97;1.70;;;;;;;31.03;46.97;100402.66;5037788;28;66578;-37
2021/07/27 06:01:41;;;;;;;3.35;1.55;;;;;;;30.68;47.05;100351.94;5042139;28;70201;-38
2021/07/27 06:04:13;;;;;;;2.60;1.80;;;;;;;30.92;47.48;100385.31;5057414;28;65778;-40
2021/07/27 06:06:44;;;;;;;2.30;1.67;;;;;;;30.99;46.27;100396.06;5056249;28;70157;-35
2021/07/27 06:09:25;;;;;;;9.73;2.00;;;;;;;30.99;46.80;100448.34;5050027;27;65790;-36
2021/07/27 06:11:59;;;;;;;7.07;2.05;;;;;;;30.96;47.49;100467.78;5036960;28;70875;-35
2021/07/27 06:14:30;;;;;;;7.15;1.85;;;;;;;30.95;48.29;100455.25;5037979;28;65957;-34
2021/07/27 06:17:13;;;;;;;4.50;1.80;;;;;;;30.91;47.76;100459.50;5049847;28;70459;-36
2021/07/27 06:19:55;;;;;;;2.38;1.67;;;;;;;30.86;47.97;100445.81;5049947;28;65464;-34
2021/07/27 06:22:26;;;;;;;4.45;2.15;;;;;;;30.80;47.17;100430.50;5051509;28;70135;-33
2021/07/27 06:25:02;;;;;;;3.03;1.65;;;;;;;30.78;46.43;100432.59;5053695;28;65548;-33
2021/07/27 06:27:36;;;;;;;2.13;1.45;;;;;;;30.71;45.66;100428.09;5048817;28;70192;-34
2021/07/27 06:30:10;;;;;;;7.30;1.80;;;;;;;30.65;45.58;100412.78;5051063;28;66544;-34
2021/07/27 06:32:42;;;;;;;3.78;1.85;;;;;;;30.66;47.60;100413.59;5050409;28;69505;-37
2021/07/27 06:35:16;;;;;;;3.47;1.65;;;;;;;30.62;47.70;100407.81;5033102;28;65496;-35
2021/07/27 06:37:47;;;;;;;7.50;1.70;;;;;;;30.60;47.39;100409.91;5050155;28;70549;-37
2021/07/27 06:40:23;;;;;;;5.40;1.80;;;;;;;30.56;46.56;100408.72;5051069;28;65835;-35
2021/07/27 06:42:56;;;;;;;;;;;;;;;30.24;46.89;100433.28;5006090;28;70499;-34
2021/07/27 06:45:26;;;;;;;2.47;1.88;;;;;;;30.43;46.73;100446.81;5053179;28;66069;-38
2021/07/27 06:47:59;;;;;;;10.93;2.17;;;;;;;30.32;47.62;100455.69;5033682;28;69162;-33
2021/07/27 06:50:33;;;;;;;2.72;1.95;;;;;;;30.32;47.43;100455.69;5049505;28;65441;-35
2021/07/27 06:53:04;;;;;;;6.90;1.90;;;;;;;30.42;47.90;100461.38;5051475;28;68757;-34
2021/07/27 06:59:54;;;;;;;19.20;1.73;;;;;;;30.28;49.18;100469.69;5050947;28;70145;-34
2021/07/27 07:02:29;;;;;;;15.63;1.73;;;;;;;30.26;48.80;100463.66;5044870;28;65587;-34
2021/07/27 07:05:13;;;;;;;9.02;1.92;;;;;;;30.26;48.44;100452.00;5036021;28;70165;-33
2021/07/27 07:07:49;;;;;;;9.50;1.92;;;;;;;30.18;48.36;100439.56;5051596;28;66501;-34
2021/07/27 07:10:24;;;;;;;10.45;1.73;;;;;;;30.20;49.00;100442.88;5049744;28;70014;-35
2021/07/27 07:12:55;;;;;;;9.98;1.60;;;;;;;30.19;48.53;100430.41;5050178;28;66273;-33
2021/07/27 07:15:27;;;;;;;3.75;1.60;;;;;;;30.16;47.87;100422.72;5045078;28;69844;-32
2021/07/27 07:17:58;;;;;;;8.77;1.48;;;;;;;30.15;47.80;100412.97;5047756;28;66340;-33
2021/07/27 07:20:30;;;;;;;7.82;1.23;;;;;;;30.10;48.03;100404.72;5049421;28;69923;-34
2021/07/27 07:23:01;;;;;;;2.75;1.50;;;;;;;30.06;47.31;100390.81;5052817;28;66031;-34
2021/07/27 07:25:43;;;;;;;11.73;1.30;;;;;;;30.04;49.31;100389.41;5048677;28;70544;-34
2021/07/27 07:28:20;;;;;;;3.78;1.60;;;;;;;30.08;53.55;100379.75;5050647;28;66661;-34
2021/07/27 07:30:50;;;;;;;2.65;1.65;;;;;;;30.03;54.87;100366.94;5051663;28;70632;-35
2021/07/27 07:33:21;;;;;;;4.18;1.90;;;;;;;30.13;56.46;100387.22;5052138;28;66383;-34
2021/07/27 07:35:54;;;;;;;2.15;1.67;;;;;;;30.11;55.92;100392.81;5047559;28;69978;-34
2021/07/27 07:38:26;;;;;;;5.47;1.48;;;;;;;30.16;56.51;100382.16;5049877;28;66038;-34
2021/07/27 07:40:58;;;;;;;2.83;1.60;;;;;;;30.16;56.57;100373.22;5051556;28;70420;-37
2021/07/27 07:43:34;;;;;;;6.57;1.65;;;;;;;30.18;57.83;100363.84;5045272;28;66519;-33
2021/07/27 07:46:07;;;;;;;2.55;1.60;;;;;;;30.31;58.89;100364.72;5048355;28;70565;-36
2021/07/27 07:48:40;;;;;;;6.97;1.77;;;;;;;30.43;58.58;100377.25;5051325;28;66550;-34
2021/07/27 07:51:12;;;;;;;;;;;;;;;30.26;61.89;100381.66;5048290;28;70134;-33
2021/07/27 07:53:45;;;;;;;5.35;2.60;;;;;;;30.57;60.44;100388.72;5048301;28;66379;-35
2021/07/27 07:56:18;;;;;;;4.68;1.92;;;;;;;30.65;60.07;100368.63;5051002;28;69984;-38
2021/07/27 07:58:50;;;;;;;5.33;2.00;;;;;;;30.71;61.85;100352.28;5041239;28;66410;-34
2021/07/27 08:01:26;;;;;;;2.20;1.52;;;;;;;30.75;60.44;100336.38;5032249;28;70497;-37
2021/07/27 08:03:58;;;;;;;;;;;;;;;30.63;62.60;100333.66;5051905;28;66705;-33
2021/07/27 08:06:31;;;;;;;9.13;1.98;;;;;;;30.89;60.28;100320.78;5049391;28;69097;-33
2021/07/27 08:09:12;;;;;;;32.75;4.15;;;;;;;30.97;60.46;100317.72;5050968;28;65336;-34
2021/07/27 08:11:44;;;;;;;3.87;1.67;;;;;;;30.95;61.56;100314.44;5043767;28;70507;-33
2021/07/27 08:14:15;;;;;;;1.77;1.27;;;;;;;31.08;60.96;100324.22;5052371;28;65320;-33
2021/07/27 08:16:51;;;;;;;3.25;1.52;;;;;;;31.13;61.32;100321.63;5049543;28;70974;-33
2021/07/27 08:19:27;;;;;;;2.22;1.35;;;;;;;31.19;62.29;100319.88;5048193;28;66202;-34
2021/07/27 08:22:00;;;;;;;1.90;1.33;;;;;;;31.11;61.29;100281.22;5045745;28;68860;-34
2021/07/27 08:24:32;;;;;;;4.60;1.20;;;;;;;31.26;61.05;100285.34;5044378;28;66710;-34
2021/07/27 08:27:08;;;;;;;2.17;1.25;;;;;;;31.23;61.62;100283.09;5047404;28;70229;-34
2021/07/27 08:29:45;;;;;;;1.52;1.00;;;;;;;31.27;61.44;100284.28;5045824;28;65612;-34
2021/07/27 08:32:16;;;;;;;1.40;1.00;;;;;;;31.33;62.12;100289.56;5042704;28;70150;-33
2021/07/27 08:34:49;;;;;;;3.75;1.23;;;;;;;31.33;61.39;100286.03;5045464;28;65479;-34
2021/07/27 08:37:31;;;;;;;3.17;1.27;;;;;;;31.33;61.42;100272.50;5044851;28;70407;-34
2021/07/27 08:40:06;;;;;;;2.13;1.40;;;;;;;31.32;61.87;100262.72;5045893;28;65444;-33
2021/07/27 08:42:41;;;;;;;3.38;1.38;;;;;;;31.33;62.29;100267.06;5045819;28;70195;-37
2021/07/27 08:45:19;;;;;;;2.55;1.13;;;;;;;31.25;61.73;100267.44;5051200;28;66581;-34
2021/07/27 08:47:50;;;;;;;1.88;1.10;;;;;;;31.22;62.04;100276.88;5055376;28;70349;-34
2021/07/27 08:50:25;;;;;;;1.88;1.45;;;;;;;31.19;62.01;100281.94;5051356;28;66863;-35
2021/07/27 08:53:01;;;;;;;2.05;1.30;;;;;;;31.06;61.34;100288.41;5050052;27;69198;-33
2021/07/27 08:55:37;;;;;;;2.10;1.27;;;;;;;31.00;61.68;100305.59;5046251;28;66526;-33
2021/07/27 08:58:08;;;;;;;3.43;1.50;;;;;;;30.91;62.13;100307.84;5047840;28;70551;-33
2021/07/27 09:00:41;;;;;;;1.95;1.45;;;;;;;30.85;62.10;100314.19;5050308;28;65385;-36
2021/07/27 09:03:16;;;;;;;1.38;1.00;;;;;;;30.83;62.51;100314.41;5048919;28;69759;-33
2021/07/27 09:06:06;;;;;;;2.42;1.27;;;;;;;30.37;63.57;100258.28;5053087;28;65998;-33
2021/07/27 09:08:39;;;;;;;3.28;1.67;;;;;;;30.82;62.77;100325.50;5048987;28;69439;-33
2021/07/27 09:11:16;;;;;;;1.75;1.13;;;;;;;30.68;62.56;100309.44;5050504;28;65439;-33
2021/07/27 09:13:59;;;;;;;1.77;1.40;;;;;;;30.78;62.26;100335.09;5052864;28;69995;-36
2021/07/27 09:16:54;;;;;;;1.63;1.40;;;;;;;30.30;63.45;100273.81;5053709;28;65429;-36
2021/07/27 09:19:43;;;;;;;2.70;1.38;;;;;;;30.77;63.18;100328.03;5053489;28;70592;-33
2021/07/27 09:22:17;;;;;;;3.63;1.30;;;;;;;30.85;63.46;100338.56;5055502;28;66042;-33
2021/07/27 09:24:50;;;;;;;5.78;1.20;;;;;;;30.83;63.02;100332.56;5049271;28;70196;-34
2021/07/27 09:27:27;;;;;;;2.05;1.20;;;;;;;30.87;63.34;100349.97;5044980;28;66359;-35
2021/07/27 09:30:01;;;;;;;3.85;1.63;;;;;;;30.88;63.52;100354.34;5052002;28;70089;-32
2021/07/27 09:32:33;;;;;;;7.05;1.42;;;;;;;30.89;63.43;100353.28;5050352;28;66336;-34
2021/07/27 09:35:05;;;;;;;2.33;1.63;;;;;;;30.89;64.00;100353.28;5051528;28;69998;-32
2021/07/27 09:37:40;;;;;;;2.97;2.65;;;;;;;30.90;63.38;100354.94;5053204;28;66343;-33
2021/07/27 09:40:15;;;;;;;6.85;3.17;;;;;;;30.83;62.90;100354.22;5055811;28;70125;-33
2021/07/27 09:42:51;;;;;;;4.22;2.45;;;;;;;30.84;63.48;100361.28;5054803;28;65506;-33
2021/07/27 09:45:30;;;;;;;3.17;2.47;;;;;;;30.88;63.28;100365.19;5055918;28;70051;-33
2021/07/27 09:48:05;;;;;;;3.70;2.35;;;;;;;30.89;63.81;100358.69;5054841;28;65958;-33
2021/07/27 09:50:37;;;;;;;3.58;2.40;;;;;;;30.92;63.79;100355.53;5053844;28;70192;-34
2021/07/27 09:53:11;;;;;;;3.55;2.50;;;;;;;30.96;64.55;100354.00;5053373;28;66263;-34
2021/07/27 09:55:42;;;;;;;;;;;;;;;30.71;65.06;100356.88;5056384;28;69516;-33
2021/07/27 09:58:16;;;;;;;5.18;2.40;;;;;;;30.97;64.55;100362.97;5051417;28;65635;-34
2021/07/27 10:01:21;;;;;;;3.28;2.67;;;;;;;30.89;64.96;100375.78;5048858;28;69241;-36
2021/07/27 10:04:03;;;;;;;2.90;2.50;;;;;;;30.57;64.43;100294.00;5053485;28;66415;-34
2021/07/27 10:06:47;;;;;;;5.38;2.10;;;;;;;30.98;65.21;100362.75;5055065;28;70100;-35
2021/07/27 10:09:32;;;;;;;2.03;1.83;;;;;;;31.05;64.68;100378.88;5053557;28;67077;-33
2021/07/27 10:12:13;;;;;;;6.47;2.20;;;;;;;30.84;65.08;100347.75;5053406;28;69827;-32
2021/07/27 10:14:47;;;;;;;3.40;2.03;;;;;;;31.06;64.60;100375.91;5052333;28;65635;-39
2021/07/27 10:17:19;;;;;;;2.55;1.92;;;;;;;31.06;64.82;100381.31;5063445;28;70537;-34
2021/07/27 10:19:56;;;;;;;2.78;1.98;;;;;;;31.03;64.64;100370.97;5053552;28;65470;-35
2021/07/27 10:22:32;;;;;;;2.53;2.30;;;;;;;31.09;65.31;100378.19;5038736;28;69484;-36
2021/07/27 10:25:12;;;;;;;3.63;1.65;;;;;;;30.62;65.41;100310.38;5054027;28;66201;-38
2021/07/27 10:27:50;;;;;;;5.65;2.00;;;;;;;31.05;65.42;100378.88;5049916;28;71110;-34
2021/07/27 10:30:38;;;;;;;;;;;;;;;30.88;66.48;100386.84;5053622;28;66292;-33
2021/07/27 10:33:09;;;;;;;1.45;1.33;;;;;;;31.01;65.52;100372.25;5052351;28;70552;-33
2021/07/27 10:35:55;;;;;;;2.45;1.58;;;;;;;30.99;65.67;100352.72;5052045;28;65852;-33
2021/07/27 10:38:39;;;;;;;1.85;1.40;;;;;;;31.24;65.18;100404.00;5055102;28;69776;-34
2021/07/27 10:41:19;;;;;;;2.35;1.30;;;;;;;31.16;65.04;100386.19;5055936;28;66371;-34
2021/07/27 10:43:50;;;;;;;6.57;1.30;;;;;;;31.24;65.46;100401.28;5057266;28;69292;-34
2021/07/27 10:46:26;;;;;;;1.60;1.30;;;;;;;31.25;65.57;100397.50;5055880;28;65478;-37
2021/07/27 10:48:58;;;;;;;4.35;1.10;;;;;;;30.80;65.65;100327.59;5037959;28;69782;-34
2021/07/27 10:51:37;;;;;;;2.30;1.30;;;;;;;30.86;64.97;100326.66;5057700;28;66103;-34
2021/07/27 10:54:30;;;;;;;5.57;1.02;;;;;;;30.89;65.17;100320.78;5056615;28;69669;-33
2021/07/27 10:57:10;;;;;;;2.15;1.13;;;;;;;31.30;65.01;100381.38;5056477;28;66442;-34
2021/07/27 10:59:50;;;;;;;1.33;0.80;;;;;;;31.24;64.99;100376.91;5056200;28;70654;-34
2021/07/27 11:02:26;;;;;;;1.00;0.77;;;;;;;31.19;65.20;100374.06;5055782;28;65235;-34
2021/07/27 11:05:12;;;;;;;1.45;1.00;;;;;;;31.32;65.21;100393.63;5052056;28;69989;-38
2021/07/27 11:07:45;;;;;;;1.55;1.10;;;;;;;31.32;64.99;100390.91;5049339;28;66520;-36
2021/07/27 11:10:30;;;;;;;1.73;1.17;;;;;;;31.33;64.85;100397.16;5056073;28;69412;-36
2021/07/27 11:13:01;;;;;;;2.10;1.05;;;;;;;31.31;65.29;100393.84;5058505;28;66218;-35
2021/07/27 11:15:33;;;;;;;2.85;1.00;;;;;;;31.28;64.79;100388.91;5055504;28;69392;-36
2021/07/27 11:18:19;;;;;;;1.88;0.95;;;;;;;31.28;65.09;100383.47;5055644;28;66794;-34
2021/07/27 11:20:54;;;;;;;1.45;0.93;;;;;;;31.34;65.14;100382.53;5052033;28;70418;-34
2021/07/27 11:23:36;;;;;;;1.45;1.15;;;;;;;31.31;65.18;100378.41;5035880;28;66052;-34
2021/07/27 11:26:07;;;;;;;1.02;0.90;;;;;;;31.31;64.79;100374.88;5052343;28;70081;-34
2021/07/27 11:28:42;;;;;;;0.77;0.77;;;;;;;31.35;65.20;100389.63;5056080;28;66581;-34
2021/07/27 11:31:18;;;;;;;2.03;1.20;;;;;;;30.96;65.13;100331.53;5057455;28;69905;-35
2021/07/27 11:33:54;;;;;;;1.80;1.08;;;;;;;31.30;64.86;100397.63;5038305;28;65589;-33
2021/07/27 11:36:26;;;;;;;;;;;;;;;31.09;65.41;100397.16;5049404;28;69927;-33
2021/07/27 11:39:07;;;;;;;1.60;1.10;;;;;;;31.25;64.77;100384.78;5060054;28;65610;-34
2021/07/27 11:41:39;;;;;;;2.63;1.50;;;;;;;31.35;64.64;100397.75;5054645;28;69548;-33
2021/07/27 11:44:24;;;;;;;3.83;1.10;;;;;;;31.19;64.90;100374.88;5054766;28;65608;-36
2021/07/27 11:47:05;;;;;;;1.67;1.58;;;;;;;31.29;64.78;100388.69;5052836;28;69399;-34
2021/07/27 11:49:38;;;;;;;1.40;1.15;;;;;;;31.36;64.96;100396.72;5054231;28;66146;-34
2021/07/27 11:52:28;;;;;;;1.20;1.00;;;;;;;31.33;64.77;100391.72;5037747;28;69743;-34
2021/07/27 11:55:05;;;;;;;1.40;1.10;;;;;;;31.01;64.84;100331.63;5054452;28;66236;-34
2021/07/27 11:57:38;;;;;;;2.05;1.30;;;;;;;31.30;64.69;100393.03;5052725;28;69979;-35
2021/07/27 12:00:17;;;;;;;1.75;1.17;;;;;;;31.26;64.78;100380.16;5054463;28;66283;-34
2021/07/27 12:02:51;;;;;;;2.35;1.40;;;;;;;31.35;65.00;100408.59;5053924;28;70168;-34
2021/07/27 12:05:34;;;;;;;1.45;1.20;;;;;;;31.36;64.78;100402.94;5050649;28;66093;-34
2021/07/27 12:08:06;;;;;;;1.08;0.90;;;;;;;31.34;64.71;100410.47;5051460;28;69208;-36
2021/07/27 12:10:39;;;;;;;1.70;1.15;;;;;;;31.37;64.72;100414.63;5054349;28;65393;-35
2021/07/27 12:13:17;;;;;;;3.17;1.20;;;;;;;31.26;64.60;100407.25;5047451;28;69964;-35
2021/07/27 12:15:59;;;;;;;1.65;1.42;;;;;;;31.32;65.04;100412.59;5051308;28;43516;-34
2021/07/27 12:18:39;;;;;;;1.67;1.17;;;;;;;31.06;64.69;100375.91;5049990;28;69361;-34
2021/07/27 12:21:11;;;;;;;4.95;1.70;;;;;;;31.26;64.70;100410.81;5037681;28;66325;-35
2021/07/27 12:23:53;;;;;;;;;;;;;;;31.11;65.92;100432.94;5049574;28;70016;-34
2021/07/27 12:26:29;;;;;;;5.88;1.50;;;;;;;31.35;64.92;100427.56;5041253;28;65650;-35
2021/07/27 12:29:07;;;;;;;15.63;1.60;;;;;;;31.39;65.37;100428.75;5046532;28;69275;-39
2021/07/27 12:31:55;;;;;;;6.00;1.98;;;;;;;31.38;65.81;100437.97;5036776;28;66183;-39
2021/07/27 12:34:29;;;;;;;9.63;2.35;;;;;;;31.10;65.34;100396.06;5049411;28;70246;-34
2021/07/27 12:37:19;;;;;;;6.65;2.33;;;;;;;31.37;65.13;100431.72;5048355;28;65670;-39